createdAt,value
2023-03-18T00:00:10.374Z,7.36
2023-03-18T00:01:12.612Z,7.33
2023-03-18T00:02:14.677Z,7.29
2023-03-18T00:03:16.646Z,7.27
2023-03-18T00:04:18.461Z,7.26
2023-03-18T00:05:20.660Z,7.25
2023-03-18T00:06:22.499Z,7.24
2023-03-18T00:07:24.370Z,7.24
2023-03-18T00:08:26.182Z,7.18
2023-03-18T00:09:28.065Z,7.11
2023-03-18T00:10:30.215Z,7.05
2023-03-18T00:11:32.478Z,6.97
2023-03-18T00:12:34.691Z,6.93
2023-03-18T00:13:36.503Z,6.89
2023-03-18T00:14:39.418Z,6.92
2023-03-18T00:15:41.226Z,6.92
2023-03-18T00:16:43.163Z,6.96
2023-03-18T00:17:45.198Z,6.99
2023-03-18T00:18:47.384Z,6.94
2023-03-18T00:19:50.463Z,6.90
2023-03-18T00:20:52.192Z,6.86
2023-03-18T00:21:54.015Z,6.84
2023-03-18T00:22:57.779Z,6.81
2023-03-18T00:24:00.906Z,6.84
2023-03-18T00:25:03.398Z,6.87
2023-03-18T00:26:05.852Z,6.90
2023-03-18T00:27:07.646Z,6.96
2023-03-18T00:28:09.637Z,6.95
2023-03-18T00:29:11.565Z,6.91
2023-03-18T00:30:14.340Z,6.89
2023-03-18T00:31:16.354Z,6.87
2023-03-18T00:32:18.170Z,6.84
2023-03-18T00:33:20.000Z,6.85
2023-03-18T00:34:21.886Z,6.82
2023-03-18T00:35:24.872Z,6.82
2023-03-18T00:36:26.818Z,6.85
2023-03-18T00:37:31.594Z,6.76
2023-03-18T00:38:33.971Z,6.73
2023-03-18T00:39:36.967Z,6.72
2023-03-18T00:40:53.796Z,6.69
2023-03-18T00:41:56.878Z,6.61
2023-03-18T00:43:08.137Z,6.64
2023-03-18T00:44:11.754Z,6.68
2023-03-18T00:45:14.743Z,6.64
2023-03-18T00:46:18.052Z,6.67
2023-03-18T00:47:21.233Z,6.64
2023-03-18T00:48:24.432Z,6.64
2023-03-18T00:49:26.657Z,6.64
2023-03-18T00:50:28.798Z,6.60
2023-03-18T00:51:32.598Z,6.56
2023-03-18T00:52:34.752Z,6.55
2023-03-18T00:53:37.221Z,6.59
2023-03-18T00:54:39.398Z,6.55
2023-03-18T00:55:41.581Z,6.53
2023-03-18T00:56:43.330Z,6.57
2023-03-18T00:57:45.159Z,6.64
2023-03-18T00:58:47.549Z,6.69
2023-03-18T00:59:49.393Z,6.65
2023-03-18T01:00:51.305Z,6.63
2023-03-18T01:01:53.834Z,6.66
2023-03-18T01:02:56.386Z,6.56
2023-03-18T01:03:58.211Z,6.61
2023-03-18T01:05:00.134Z,6.58
2023-03-18T01:06:04.472Z,6.49
2023-03-18T01:07:06.359Z,6.48
2023-03-18T01:08:08.190Z,6.50
2023-03-18T01:09:11.953Z,6.56
2023-03-18T01:10:14.882Z,6.57
2023-03-18T01:11:16.875Z,6.61
2023-03-18T01:12:18.700Z,6.59
2023-03-18T01:13:20.922Z,6.58
2023-03-18T01:14:22.722Z,6.52
2023-03-18T01:15:25.654Z,6.53
2023-03-18T01:16:28.448Z,6.56
2023-03-18T01:17:30.384Z,6.58
2023-03-18T01:18:32.314Z,6.62
2023-03-18T01:19:34.461Z,6.66
2023-03-18T01:20:36.211Z,6.71
2023-03-18T01:21:38.190Z,6.76
2023-03-18T01:22:42.406Z,6.78
2023-03-18T01:23:44.501Z,6.81
2023-03-18T01:24:47.831Z,6.82
2023-03-18T01:25:50.105Z,6.83
2023-03-18T01:26:52.597Z,6.82
2023-03-18T01:27:54.963Z,6.82
2023-03-18T01:28:57.361Z,6.83
2023-03-18T01:30:00.334Z,6.84
2023-03-18T01:31:02.117Z,6.84
2023-03-18T01:32:04.208Z,6.85
2023-03-18T01:33:07.911Z,6.82
2023-03-18T01:34:09.815Z,6.84
2023-03-18T01:35:12.697Z,6.84
2023-03-18T01:36:15.987Z,6.78
2023-03-18T01:37:17.920Z,6.78
2023-03-18T01:38:19.758Z,6.75
2023-03-18T01:39:22.193Z,6.75
2023-03-18T01:40:24.023Z,6.69
2023-03-18T01:41:26.339Z,6.63
2023-03-18T01:42:28.292Z,6.60
2023-03-18T01:43:32.121Z,6.49
2023-03-18T01:44:33.956Z,6.48
2023-03-18T01:45:35.992Z,6.48
2023-03-18T01:46:39.912Z,6.42
2023-03-18T01:47:44.928Z,6.34
2023-03-18T01:48:46.859Z,6.32
2023-03-18T01:49:49.792Z,6.30
2023-03-18T01:50:55.172Z,6.30
2023-03-18T01:52:20.055Z,6.34
2023-03-18T01:53:23.025Z,6.37
2023-03-18T01:54:26.413Z,6.40
2023-03-18T01:55:30.085Z,6.39
2023-03-18T01:56:33.145Z,6.35
2023-03-18T01:57:35.417Z,6.28
2023-03-18T01:58:39.107Z,6.21
2023-03-18T01:59:42.626Z,6.15
2023-03-18T02:00:47.322Z,6.14
2023-03-18T02:01:55.127Z,6.13
2023-03-18T02:02:58.296Z,6.17
2023-03-18T02:04:01.300Z,6.17
2023-03-18T02:05:06.547Z,6.07
2023-03-18T02:06:10.359Z,5.97
2023-03-18T02:07:17.137Z,5.98
2023-03-18T02:08:19.074Z,5.92
2023-03-18T02:09:20.870Z,5.84
2023-03-18T02:10:27.009Z,5.73
2023-03-18T02:11:31.212Z,5.74
2023-03-18T02:12:34.713Z,5.77
2023-03-18T02:13:41.756Z,5.85
2023-03-18T02:14:44.392Z,5.89
2023-03-18T02:15:48.884Z,5.79
2023-03-18T02:17:00.504Z,5.69
2023-03-18T02:18:06.140Z,5.70
2023-03-18T02:19:14.074Z,5.71
2023-03-18T02:20:15.823Z,5.70
2023-03-18T02:21:29.961Z,5.72
2023-03-18T02:22:41.650Z,5.73
2023-03-18T02:23:52.753Z,5.74
2023-03-18T02:25:13.405Z,5.77
2023-03-18T02:26:15.225Z,5.82
2023-03-18T02:27:21.351Z,5.88
2023-03-18T02:28:24.989Z,5.92
2023-03-18T02:29:28.485Z,5.95
2023-03-18T02:30:40.414Z,5.98
2023-03-18T02:31:43.003Z,5.95
2023-03-18T02:32:46.094Z,5.88
2023-03-18T02:33:48.001Z,5.82
2023-03-18T02:34:49.817Z,5.78
2023-03-18T02:35:59.487Z,5.80
2023-03-18T02:37:01.776Z,5.81
2023-03-18T02:38:05.029Z,5.76
2023-03-18T02:39:06.796Z,5.74
2023-03-18T02:40:25.253Z,5.78
2023-03-18T02:41:29.084Z,5.79
2023-03-18T02:42:32.359Z,5.79
2023-03-18T02:43:34.220Z,5.79
2023-03-18T02:44:39.735Z,5.80
2023-03-18T02:46:01.762Z,5.77
2023-03-18T02:47:07.094Z,5.70
2023-03-18T02:48:12.136Z,5.65
2023-03-18T02:49:14.703Z,5.63
2023-03-18T02:50:16.605Z,5.63
2023-03-18T02:51:19.278Z,5.65
2023-03-18T02:52:21.214Z,5.63
2023-03-18T02:53:23.000Z,5.57
2023-03-18T02:54:29.309Z,5.52
2023-03-18T02:55:31.250Z,5.45
2023-03-18T02:56:33.209Z,5.47
2023-03-18T02:57:35.123Z,5.43
2023-03-18T02:58:37.347Z,5.40
2023-03-18T02:59:39.182Z,5.40
2023-03-18T03:00:41.033Z,5.41
2023-03-18T03:01:44.204Z,5.45
2023-03-18T03:02:46.912Z,5.47
2023-03-18T03:03:48.865Z,5.50
2023-03-18T03:04:50.730Z,5.50
2023-03-18T03:05:52.976Z,5.40
2023-03-18T03:06:56.864Z,5.27
2023-03-18T03:07:58.758Z,5.23
2023-03-18T03:09:01.256Z,5.27
2023-03-18T03:10:04.398Z,5.32
2023-03-18T03:11:06.210Z,5.38
2023-03-18T03:12:08.163Z,5.32
2023-03-18T03:13:10.235Z,5.25
2023-03-18T03:14:12.117Z,5.24
2023-03-18T03:15:14.582Z,5.09
2023-03-18T03:16:17.498Z,4.97
2023-03-18T03:17:19.367Z,4.96
2023-03-18T03:18:21.800Z,4.96
2023-03-18T03:19:24.055Z,4.96
2023-03-18T03:20:25.846Z,4.88
2023-03-18T03:21:28.374Z,4.75
2023-03-18T03:22:30.771Z,4.68
2023-03-18T03:23:33.227Z,4.74
2023-03-18T03:24:35.052Z,4.80
2023-03-18T03:25:37.232Z,4.79
2023-03-18T03:26:39.118Z,4.85
2023-03-18T03:27:41.396Z,4.90
2023-03-18T03:28:43.272Z,4.87
2023-03-18T03:29:45.138Z,4.85
2023-03-18T03:30:47.054Z,4.87
2023-03-18T03:31:48.964Z,4.88
2023-03-18T03:32:51.048Z,4.87
2023-03-18T03:33:53.061Z,4.76
2023-03-18T03:34:54.956Z,4.71
2023-03-18T03:35:58.446Z,4.75
2023-03-18T03:37:00.325Z,4.76
2023-03-18T03:38:02.473Z,4.78
2023-03-18T03:39:04.494Z,4.83
2023-03-18T03:40:06.742Z,4.90
2023-03-18T03:41:10.628Z,4.98
2023-03-18T03:42:12.502Z,5.04
2023-03-18T03:43:15.077Z,5.03
2023-03-18T03:44:17.526Z,5.05
2023-03-18T03:45:20.378Z,5.10
2023-03-18T03:46:22.245Z,5.13
2023-03-18T03:47:24.066Z,5.15
2023-03-18T03:48:26.067Z,5.13
2023-03-18T03:49:28.235Z,5.11
2023-03-18T03:50:30.186Z,5.12
2023-03-18T03:51:32.604Z,5.12
2023-03-18T03:52:34.485Z,5.14
2023-03-18T03:53:36.525Z,5.12
2023-03-18T03:54:38.510Z,5.09
2023-03-18T03:55:40.430Z,5.01
2023-03-18T03:56:43.268Z,4.98
2023-03-18T03:57:45.494Z,5.01
2023-03-18T03:58:47.723Z,5.02
2023-03-18T03:59:49.566Z,4.98
2023-03-18T04:00:51.378Z,4.99
2023-03-18T04:01:53.125Z,5.03
2023-03-18T04:02:54.993Z,5.05
2023-03-18T04:03:56.969Z,5.00
2023-03-18T04:04:58.833Z,5.02
2023-03-18T04:06:01.107Z,5.00
2023-03-18T04:07:03.510Z,4.99
2023-03-18T04:08:06.789Z,4.92
2023-03-18T04:09:08.675Z,4.94
2023-03-18T04:10:12.270Z,4.98
2023-03-18T04:11:14.123Z,4.99
2023-03-18T04:12:18.566Z,4.96
2023-03-18T04:13:20.414Z,4.93
2023-03-18T04:14:22.190Z,4.93
2023-03-18T04:15:24.121Z,4.95
2023-03-18T04:16:26.000Z,4.95
2023-03-18T04:17:27.868Z,4.91
2023-03-18T04:18:29.701Z,4.90
2023-03-18T04:19:31.585Z,4.90
2023-03-18T04:20:39.633Z,4.91
2023-03-18T04:21:41.402Z,4.91
2023-03-18T04:22:44.183Z,4.86
2023-03-18T04:23:46.712Z,4.86
2023-03-18T04:24:48.554Z,4.87
2023-03-18T04:25:50.789Z,4.83
2023-03-18T04:26:52.576Z,4.74
2023-03-18T04:27:54.382Z,4.75
2023-03-18T04:28:56.142Z,4.76
2023-03-18T04:29:58.238Z,4.75
2023-03-18T04:31:00.237Z,4.70
2023-03-18T04:32:02.045Z,4.69
2023-03-18T04:33:03.910Z,4.66
2023-03-18T04:34:05.865Z,4.63
2023-03-18T04:35:07.984Z,4.56
2023-03-18T04:36:10.308Z,4.53
2023-03-18T04:37:14.472Z,4.51
2023-03-18T04:38:16.213Z,4.44
2023-03-18T04:39:18.569Z,4.44
2023-03-18T04:40:20.899Z,4.47
2023-03-18T04:41:22.934Z,4.47
2023-03-18T04:42:24.789Z,4.49
2023-03-18T04:43:26.898Z,4.50
2023-03-18T04:44:29.302Z,4.51
2023-03-18T04:45:31.122Z,4.52
2023-03-18T04:46:33.163Z,4.57
2023-03-18T04:47:36.221Z,4.61
2023-03-18T04:48:38.738Z,4.60
2023-03-18T04:49:40.920Z,4.63
2023-03-18T04:50:43.956Z,4.57
2023-03-18T04:51:46.111Z,4.53
2023-03-18T04:52:48.618Z,4.54
2023-03-18T04:53:50.478Z,4.53
2023-03-18T04:54:53.111Z,4.57
2023-03-18T04:55:55.899Z,4.57
2023-03-18T04:56:57.808Z,4.54
2023-03-18T04:57:59.654Z,4.56
2023-03-18T04:59:01.484Z,4.60
2023-03-18T05:00:06.962Z,4.63
2023-03-18T05:01:10.306Z,4.64
2023-03-18T05:02:12.213Z,4.66
2023-03-18T05:03:13.967Z,4.63
2023-03-18T05:04:15.945Z,4.58
2023-03-18T05:05:18.498Z,4.58
2023-03-18T05:06:24.353Z,4.53
2023-03-18T05:07:27.035Z,4.51
2023-03-18T05:08:28.771Z,4.53
2023-03-18T05:09:30.586Z,4.56
2023-03-18T05:10:32.394Z,4.59
2023-03-18T05:11:34.289Z,4.60
2023-03-18T05:12:37.512Z,4.63
2023-03-18T05:13:39.555Z,4.59
2023-03-18T05:14:42.953Z,4.57
2023-03-18T05:15:45.158Z,4.60
2023-03-18T05:16:47.125Z,4.63
2023-03-18T05:17:49.078Z,4.66
2023-03-18T05:18:51.176Z,4.69
2023-03-18T05:19:53.159Z,4.70
2023-03-18T05:20:55.260Z,4.68
2023-03-18T05:21:57.107Z,4.63
2023-03-18T05:22:58.950Z,4.60
2023-03-18T05:24:01.430Z,4.56
2023-03-18T05:25:03.332Z,4.53
2023-03-18T05:26:05.941Z,4.51
2023-03-18T05:27:07.950Z,4.52
2023-03-18T05:28:11.403Z,4.53
2023-03-18T05:29:13.567Z,4.48
2023-03-18T05:30:15.733Z,4.43
2023-03-18T05:31:17.792Z,4.46
2023-03-18T05:32:19.746Z,4.48
2023-03-18T05:33:23.378Z,4.49
2023-03-18T05:34:25.360Z,4.47
2023-03-18T05:35:27.912Z,4.48
2023-03-18T05:36:29.835Z,4.52
2023-03-18T05:37:31.768Z,4.53
2023-03-18T05:38:33.559Z,4.57
2023-03-18T05:39:35.316Z,4.57
2023-03-18T05:40:37.758Z,4.61
2023-03-18T05:41:40.157Z,4.63
2023-03-18T05:42:57.379Z,4.64
2023-03-18T05:43:59.238Z,4.62
2023-03-18T05:45:00.982Z,4.63
2023-03-18T05:46:02.845Z,4.57
2023-03-18T05:47:04.823Z,4.57
2023-03-18T05:48:07.050Z,4.58
2023-03-18T05:49:09.059Z,4.60
2023-03-18T05:50:11.263Z,4.61
2023-03-18T05:51:13.080Z,4.64
2023-03-18T05:52:17.621Z,4.66
2023-03-18T05:53:19.477Z,4.67
2023-03-18T05:54:21.365Z,4.64
2023-03-18T05:55:23.835Z,4.67
2023-03-18T05:56:26.009Z,4.68
2023-03-18T05:57:28.600Z,4.67
2023-03-18T05:58:31.547Z,4.65
2023-03-18T05:59:33.326Z,4.63
2023-03-18T06:00:36.013Z,4.66
2023-03-18T06:01:38.203Z,4.67
2023-03-18T06:02:40.335Z,4.65
2023-03-18T06:03:43.064Z,4.61
2023-03-18T06:04:44.963Z,4.63
2023-03-18T06:05:47.918Z,4.66
2023-03-18T06:06:49.956Z,4.58
2023-03-18T06:07:52.937Z,4.60
2023-03-18T06:08:56.414Z,4.60
2023-03-18T06:09:58.176Z,4.63
2023-03-18T06:10:59.929Z,4.64
2023-03-18T06:12:01.973Z,4.68
2023-03-18T06:13:03.737Z,4.71
2023-03-18T06:14:06.192Z,4.73
2023-03-18T06:15:09.149Z,4.75
2023-03-18T06:16:11.622Z,4.79
2023-03-18T06:17:14.354Z,4.79
2023-03-18T06:18:17.341Z,4.74
2023-03-18T06:19:19.712Z,4.76
2023-03-18T06:20:21.749Z,4.80
2023-03-18T06:21:23.589Z,4.83
2023-03-18T06:22:25.570Z,4.85
2023-03-18T06:23:27.760Z,4.80
2023-03-18T06:24:29.647Z,4.81
2023-03-18T06:25:31.853Z,4.78
2023-03-18T06:26:34.517Z,4.77
2023-03-18T06:27:36.629Z,4.82
2023-03-18T06:28:38.569Z,4.84
2023-03-18T06:29:41.299Z,4.86
2023-03-18T06:30:43.172Z,4.83
2023-03-18T06:31:44.999Z,4.82
2023-03-18T06:32:46.816Z,4.80
2023-03-18T06:33:48.654Z,4.80
2023-03-18T06:34:50.865Z,4.81
2023-03-18T06:35:53.616Z,4.77
2023-03-18T06:36:56.737Z,4.82
2023-03-18T06:37:58.583Z,4.86
2023-03-18T06:39:00.390Z,4.91
2023-03-18T06:40:02.175Z,4.93
2023-03-18T06:41:05.021Z,4.93
2023-03-18T06:42:06.999Z,4.91
2023-03-18T06:43:08.963Z,4.94
2023-03-18T06:44:11.499Z,4.99
2023-03-18T06:45:13.778Z,5.05
2023-03-18T06:46:15.609Z,5.08
2023-03-18T06:47:22.256Z,5.11
2023-03-18T06:48:24.148Z,5.16
2023-03-18T06:49:25.937Z,5.16
2023-03-18T06:50:28.065Z,5.11
2023-03-18T06:51:29.911Z,5.01
2023-03-18T06:52:32.083Z,4.94
2023-03-18T06:53:36.764Z,4.93
2023-03-18T06:54:38.630Z,4.96
2023-03-18T06:55:40.436Z,5.01
2023-03-18T06:56:42.722Z,5.03
2023-03-18T06:57:45.933Z,5.07
2023-03-18T06:58:47.867Z,5.09
2023-03-18T06:59:49.908Z,5.08
2023-03-18T07:00:52.126Z,5.09
2023-03-18T07:01:54.210Z,5.14
2023-03-18T07:02:55.988Z,5.20
2023-03-18T07:03:59.246Z,5.25
2023-03-18T07:05:02.091Z,5.26
2023-03-18T07:06:04.661Z,5.35
2023-03-18T07:07:06.874Z,5.43
2023-03-18T07:08:09.617Z,5.50
2023-03-18T07:09:13.044Z,5.57
2023-03-18T07:10:18.968Z,5.68
2023-03-18T07:11:20.868Z,5.79
2023-03-18T07:12:22.852Z,5.89
2023-03-18T07:13:25.175Z,5.93
2023-03-18T07:14:28.726Z,6.01
2023-03-18T07:15:30.811Z,6.08
2023-03-18T07:16:33.024Z,6.11
2023-03-18T07:17:34.777Z,6.17
2023-03-18T07:18:37.932Z,6.24
2023-03-18T07:19:40.102Z,6.30
2023-03-18T07:20:42.127Z,6.36
2023-03-18T07:21:44.082Z,6.41
2023-03-18T07:22:47.378Z,6.46
2023-03-18T07:23:49.789Z,6.53
2023-03-18T07:24:52.639Z,6.53
2023-03-18T07:25:54.921Z,6.56
2023-03-18T07:26:56.873Z,6.59
2023-03-18T07:28:00.530Z,6.65
2023-03-18T07:29:02.340Z,6.67
2023-03-18T07:30:04.430Z,6.67
2023-03-18T07:31:06.225Z,6.65
2023-03-18T07:32:08.613Z,6.69
2023-03-18T07:33:10.479Z,6.74
2023-03-18T07:34:12.866Z,6.82
2023-03-18T07:35:14.724Z,6.87
2023-03-18T07:36:16.556Z,6.91
2023-03-18T07:37:18.467Z,6.93
2023-03-18T07:38:20.239Z,7.00
2023-03-18T07:39:22.813Z,7.04
2023-03-18T07:40:24.840Z,7.05
2023-03-18T07:41:26.858Z,7.11
2023-03-18T07:42:28.660Z,7.16
2023-03-18T07:43:30.512Z,7.21
2023-03-18T07:44:32.409Z,7.26
2023-03-18T07:45:34.941Z,7.34
2023-03-18T07:46:36.763Z,7.41
2023-03-18T07:47:39.037Z,7.49
2023-03-18T07:48:40.908Z,7.59
2023-03-18T07:49:43.375Z,7.68
2023-03-18T07:50:45.400Z,7.74
2023-03-18T07:51:47.420Z,7.85
2023-03-18T07:52:49.221Z,7.93
2023-03-18T07:53:53.676Z,8.00
2023-03-18T07:54:55.638Z,8.07
2023-03-18T07:55:57.565Z,8.13
2023-03-18T07:56:59.359Z,8.18
2023-03-18T07:58:01.086Z,8.19
2023-03-18T07:59:03.030Z,8.19
2023-03-18T08:00:06.403Z,8.18
2023-03-18T08:01:08.378Z,8.18
2023-03-18T08:02:12.934Z,8.23
2023-03-18T08:03:15.165Z,8.23
2023-03-18T08:04:18.359Z,8.32
2023-03-18T08:05:20.413Z,8.37
2023-03-18T08:06:22.998Z,8.41
2023-03-18T08:07:25.640Z,8.41
2023-03-18T08:08:28.236Z,8.43
2023-03-18T08:09:30.050Z,8.46
2023-03-18T08:10:31.962Z,8.48
2023-03-18T08:11:33.887Z,8.48
2023-03-18T08:12:51.633Z,8.50
2023-03-18T08:13:54.229Z,8.51
2023-03-18T08:14:56.644Z,8.54
2023-03-18T08:15:59.037Z,8.59
2023-03-18T08:17:00.990Z,8.63
2023-03-18T08:18:02.973Z,8.67
2023-03-18T08:19:04.804Z,8.74
2023-03-18T08:20:07.014Z,8.78
2023-03-18T08:21:09.783Z,8.83
2023-03-18T08:22:11.718Z,8.87
2023-03-18T08:23:13.638Z,8.89
2023-03-18T08:24:15.530Z,8.89
2023-03-18T08:25:17.684Z,8.91
2023-03-18T08:26:19.698Z,8.98
2023-03-18T08:27:21.526Z,9.07
2023-03-18T08:28:24.010Z,9.16
2023-03-18T08:29:25.773Z,9.24
2023-03-18T08:30:29.058Z,9.35
2023-03-18T08:31:30.949Z,9.44
2023-03-18T08:32:32.994Z,9.45
2023-03-18T08:33:34.800Z,9.51
2023-03-18T08:34:36.862Z,9.55
2023-03-18T08:35:40.560Z,9.55
2023-03-18T08:36:43.241Z,9.63
2023-03-18T08:37:45.524Z,9.66
2023-03-18T08:38:47.277Z,9.71
2023-03-18T08:39:49.111Z,9.77
2023-03-18T08:40:51.090Z,9.86
2023-03-18T08:41:53.061Z,9.92
2023-03-18T08:42:54.924Z,9.98
2023-03-18T08:43:57.560Z,10.08
2023-03-18T08:44:59.757Z,10.14
2023-03-18T08:46:01.684Z,10.20
2023-03-18T08:47:03.477Z,10.28
2023-03-18T08:48:09.897Z,10.31
2023-03-18T08:49:12.593Z,10.36
2023-03-18T08:50:14.785Z,10.42
2023-03-18T08:51:17.093Z,10.47
2023-03-18T08:52:19.084Z,10.51
2023-03-18T08:53:20.945Z,10.53
2023-03-18T08:54:22.816Z,10.57
2023-03-18T08:55:34.764Z,10.60
2023-03-18T08:56:36.921Z,10.65
2023-03-18T08:57:39.212Z,10.69
2023-03-18T08:58:41.249Z,10.75
2023-03-18T08:59:43.060Z,10.78
2023-03-18T09:00:44.945Z,10.81
2023-03-18T09:01:46.756Z,10.80
2023-03-18T09:02:49.026Z,10.82
2023-03-18T09:03:51.025Z,10.86
2023-03-18T09:04:54.002Z,10.86
2023-03-18T09:05:55.915Z,10.91
2023-03-18T09:06:57.767Z,11.02
2023-03-18T09:08:00.620Z,11.09
2023-03-18T09:09:02.504Z,11.14
2023-03-18T09:10:04.620Z,11.18
2023-03-18T09:11:07.456Z,11.25
2023-03-18T09:12:09.383Z,11.31
2023-03-18T09:13:11.235Z,11.37
2023-03-18T09:14:13.817Z,11.45
2023-03-18T09:15:16.318Z,11.47
2023-03-18T09:16:18.745Z,11.51
2023-03-18T09:18:20.675Z,11.59
2023-03-18T09:19:22.630Z,11.61
2023-03-18T09:20:24.674Z,11.65
2023-03-18T09:21:27.387Z,11.68
2023-03-18T09:22:29.342Z,11.75
2023-03-18T09:23:32.613Z,11.75
2023-03-18T09:24:35.306Z,11.82
2023-03-18T09:25:37.361Z,11.92
2023-03-18T09:26:39.773Z,11.97
2023-03-18T09:27:42.500Z,12.04
2023-03-18T09:28:44.466Z,12.10
2023-03-18T09:29:46.935Z,12.15
2023-03-18T09:30:49.038Z,12.25
2023-03-18T09:31:51.137Z,12.37
2023-03-18T09:32:53.106Z,12.42
2023-03-18T09:33:55.228Z,12.47
2023-03-18T09:34:57.398Z,12.51
2023-03-18T09:35:59.479Z,12.58
2023-03-18T09:37:01.590Z,12.60
2023-03-18T09:38:04.911Z,12.66
2023-03-18T09:39:07.240Z,12.70
2023-03-18T09:40:11.019Z,12.75
2023-03-18T09:41:13.026Z,12.83
2023-03-18T09:42:33.666Z,12.90
2023-03-18T09:43:59.607Z,12.97
2023-03-18T09:45:10.766Z,13.13
2023-03-18T09:46:27.697Z,13.21
2023-03-18T09:47:41.543Z,13.33
2023-03-18T09:48:58.251Z,13.42
2023-03-18T09:50:24.572Z,13.48
2023-03-18T09:51:42.394Z,13.59
2023-03-18T09:52:54.324Z,13.66
2023-03-18T09:54:04.634Z,13.70
2023-03-18T09:55:22.620Z,13.78
2023-03-18T09:56:29.108Z,13.88
2023-03-18T09:57:38.941Z,13.99
2023-03-18T09:59:03.952Z,14.16
2023-03-18T10:00:25.084Z,14.28
2023-03-18T10:01:29.778Z,14.33
2023-03-18T10:02:38.846Z,14.37
2023-03-18T10:03:54.805Z,14.49
2023-03-18T10:05:02.222Z,14.56
2023-03-18T10:06:13.015Z,14.65
2023-03-18T10:07:20.302Z,14.80
2023-03-18T10:09:08.140Z,14.98
2023-03-18T10:10:22.774Z,15.21
2023-03-18T10:11:46.111Z,15.44
2023-03-18T10:12:54.976Z,15.58
2023-03-18T10:14:17.818Z,15.72
2023-03-18T10:15:37.500Z,15.74
2023-03-18T10:16:55.953Z,15.91
2023-03-18T10:17:57.981Z,16.02
2023-03-18T10:19:00.419Z,16.17
2023-03-18T10:20:06.617Z,16.26
2023-03-18T10:21:59.706Z,16.35
2023-03-18T10:23:14.950Z,16.45
2023-03-18T10:24:38.470Z,16.50
2023-03-18T10:25:46.370Z,16.69
2023-03-18T10:26:52.823Z,16.79
2023-03-18T10:28:18.465Z,16.86
2023-03-18T10:29:38.760Z,16.99
2023-03-18T10:31:11.464Z,17.16
2023-03-18T10:32:49.622Z,17.19
2023-03-18T10:34:01.849Z,17.24
2023-03-18T10:35:22.963Z,17.35
2023-03-18T10:36:36.971Z,17.47
2023-03-18T10:37:57.509Z,17.58
2023-03-18T10:39:01.505Z,17.73
2023-03-18T10:40:12.652Z,17.80
2023-03-18T10:41:32.859Z,17.92
2023-03-18T10:42:38.284Z,18.12
2023-03-18T10:43:40.327Z,18.26
2023-03-18T10:44:42.420Z,18.32
2023-03-18T10:45:47.140Z,18.45
2023-03-18T10:47:25.344Z,18.60
2023-03-18T10:48:46.184Z,18.76
2023-03-18T10:50:11.068Z,18.86
2023-03-18T10:51:21.801Z,18.97
2023-03-18T10:52:59.025Z,19.12
2023-03-18T10:54:17.192Z,19.21
2023-03-18T10:55:24.013Z,19.26
2023-03-18T10:56:27.747Z,19.39
2023-03-18T10:57:30.089Z,19.48
2023-03-18T10:58:32.451Z,19.57
2023-03-18T10:59:35.677Z,19.65
2023-03-18T11:00:37.698Z,19.70
2023-03-18T11:01:40.971Z,19.78
2023-03-18T11:02:43.932Z,19.89
2023-03-18T11:04:07.550Z,20.04
2023-03-18T11:05:12.178Z,20.14
2023-03-18T11:06:20.544Z,20.23
2023-03-18T11:07:26.937Z,20.24
2023-03-18T11:08:32.819Z,20.34
2023-03-18T11:09:42.648Z,20.40
2023-03-18T11:10:46.371Z,20.50
2023-03-18T11:11:50.851Z,20.64
2023-03-18T11:13:00.363Z,20.66
2023-03-18T11:14:05.098Z,20.73
2023-03-18T11:15:11.280Z,20.84
2023-03-18T11:16:24.865Z,20.90
2023-03-18T11:17:35.758Z,20.97
2023-03-18T11:18:38.494Z,21.04
2023-03-18T11:19:48.882Z,20.94
2023-03-18T11:21:01.520Z,20.97
2023-03-18T11:22:22.721Z,21.07
2023-03-18T11:23:49.312Z,21.18
2023-03-18T11:25:16.874Z,21.38
2023-03-18T11:26:23.604Z,21.56
2023-03-18T11:27:30.014Z,21.62
2023-03-18T11:28:33.557Z,21.50
2023-03-18T11:29:35.662Z,21.61
2023-03-18T11:30:58.232Z,21.71
2023-03-18T11:32:02.142Z,21.83
2023-03-18T11:33:16.125Z,21.92
2023-03-18T11:34:21.818Z,21.94
2023-03-18T11:35:32.820Z,22.04
2023-03-18T11:36:34.965Z,22.14
2023-03-18T11:37:41.111Z,22.29
2023-03-18T11:38:43.507Z,22.45
2023-03-18T11:39:45.569Z,22.55
2023-03-18T11:40:48.053Z,22.55
2023-03-18T11:41:50.086Z,22.57
2023-03-18T11:43:01.101Z,22.66
2023-03-18T11:44:07.037Z,22.65
2023-03-18T11:45:28.001Z,22.58
2023-03-18T11:46:36.578Z,22.64
2023-03-18T11:47:39.663Z,22.53
2023-03-18T11:48:43.871Z,22.42
2023-03-18T11:49:46.225Z,22.37
2023-03-18T11:50:54.178Z,22.36
2023-03-18T11:52:11.324Z,22.27
2023-03-18T11:53:28.522Z,22.29
2023-03-18T11:54:39.267Z,22.29
2023-03-18T11:55:53.098Z,22.31
2023-03-18T11:57:06.337Z,22.43
2023-03-18T11:58:32.787Z,22.44
2023-03-18T12:00:10.098Z,22.48
2023-03-18T12:01:32.939Z,22.39
2023-03-18T12:03:19.366Z,22.27
2023-03-18T12:04:34.201Z,22.28
2023-03-18T12:06:00.964Z,22.39
2023-03-18T12:07:15.765Z,22.51
2023-03-18T12:09:08.828Z,22.48
2023-03-18T12:10:26.463Z,22.33
2023-03-18T12:11:47.354Z,22.30
2023-03-18T12:13:01.176Z,22.29
2023-03-18T12:14:19.411Z,22.37
2023-03-18T12:15:43.048Z,22.35
2023-03-18T12:17:26.009Z,22.23
2023-03-18T12:18:42.703Z,22.28
2023-03-18T12:20:26.562Z,22.18
2023-03-18T12:21:47.862Z,22.21
2023-03-18T12:23:03.729Z,22.16
2023-03-18T12:24:21.014Z,22.22
2023-03-18T12:25:43.955Z,21.97
2023-03-18T12:27:02.041Z,22.04
2023-03-18T12:28:11.603Z,22.04
2023-03-18T12:29:37.680Z,22.08
2023-03-18T12:31:18.513Z,22.15
2023-03-18T12:32:40.566Z,22.32
2023-03-18T12:33:56.806Z,22.57
2023-03-18T12:35:12.106Z,22.64
2023-03-18T12:36:17.026Z,22.67
2023-03-18T12:37:32.547Z,22.67
2023-03-18T12:38:41.284Z,22.73
2023-03-18T12:40:04.863Z,22.77
2023-03-18T12:41:38.731Z,22.72
2023-03-18T12:42:53.447Z,22.69
2023-03-18T12:44:08.108Z,22.78
2023-03-18T12:45:18.089Z,22.80
2023-03-18T12:46:35.090Z,22.85
2023-03-18T12:47:49.513Z,22.95
2023-03-18T12:49:09.627Z,23.08
2023-03-18T12:50:27.388Z,23.04
2023-03-18T12:51:43.509Z,22.87
2023-03-18T12:53:04.365Z,22.83
2023-03-18T12:54:16.816Z,22.77
2023-03-18T12:55:48.459Z,22.77
2023-03-18T12:56:59.119Z,22.84
2023-03-18T12:58:11.185Z,22.96
2023-03-18T12:59:32.370Z,23.07
2023-03-18T13:00:42.513Z,23.11
2023-03-18T13:02:00.835Z,23.16
2023-03-18T13:03:22.543Z,23.16
2023-03-18T13:04:30.909Z,23.17
2023-03-18T13:06:01.175Z,23.22
2023-03-18T13:07:18.842Z,23.20
2023-03-18T13:09:18.179Z,23.18
2023-03-18T13:10:23.663Z,23.02
2023-03-18T13:11:50.796Z,22.99
2023-03-18T13:12:59.995Z,23.00
2023-03-18T13:14:26.788Z,22.91
2023-03-18T13:15:32.419Z,22.84
2023-03-18T13:16:37.874Z,22.75
2023-03-18T13:17:48.511Z,22.60
2023-03-18T13:18:53.793Z,22.51
2023-03-18T13:20:01.525Z,22.49
2023-03-18T13:21:06.089Z,22.53
2023-03-18T13:22:32.426Z,22.49
2023-03-18T13:23:49.476Z,22.46
2023-03-18T13:24:59.983Z,22.54
2023-03-18T13:26:11.041Z,22.62
2023-03-18T13:27:35.298Z,22.67
2023-03-18T13:29:08.177Z,22.73
2023-03-18T13:30:28.691Z,22.61
2023-03-18T13:32:08.149Z,22.53
2023-03-18T13:33:29.770Z,22.37
2023-03-18T13:34:56.590Z,22.31
2023-03-18T13:36:23.885Z,22.42
2023-03-18T13:37:44.835Z,22.61
2023-03-18T13:39:15.981Z,22.81
2023-03-18T13:40:40.510Z,22.79
2023-03-18T13:42:08.184Z,22.85
2023-03-18T13:43:17.920Z,22.88
2023-03-18T13:44:30.207Z,22.90
2023-03-18T13:45:41.995Z,23.08
2023-03-18T13:46:58.955Z,23.12
2023-03-18T13:48:07.716Z,23.20
2023-03-18T13:49:18.977Z,23.11
2023-03-18T13:50:20.871Z,23.25
2023-03-18T13:51:25.638Z,23.23
2023-03-18T13:52:55.788Z,23.33
2023-03-18T13:54:02.327Z,23.32
2023-03-18T13:55:32.411Z,23.35
2023-03-18T13:56:50.340Z,23.35
2023-03-18T13:57:57.476Z,23.44
2023-03-18T13:59:07.185Z,23.48
2023-03-18T14:00:27.463Z,23.42
2023-03-18T14:01:34.513Z,23.36
2023-03-18T14:02:46.026Z,23.41
2023-03-18T14:04:01.520Z,23.34
2023-03-18T14:05:13.206Z,23.25
2023-03-18T14:06:36.875Z,23.29
2023-03-18T14:07:49.784Z,23.21
2023-03-18T14:08:53.472Z,23.19
2023-03-18T14:10:19.546Z,23.09
2023-03-18T14:11:26.383Z,23.07
2023-03-18T14:12:31.349Z,22.99
2023-03-18T14:13:34.318Z,22.78
2023-03-18T14:14:54.671Z,22.71
2023-03-18T14:15:59.217Z,22.70
2023-03-18T14:17:01.920Z,22.54
2023-03-18T14:18:04.822Z,22.39
2023-03-18T14:19:32.763Z,22.29
2023-03-18T14:20:42.386Z,22.25
2023-03-18T14:21:50.283Z,22.22
2023-03-18T14:23:16.399Z,22.16
2023-03-18T14:24:18.322Z,21.89
2023-03-18T14:25:23.561Z,21.92
2023-03-18T14:26:27.448Z,21.95
2023-03-18T14:27:30.071Z,22.05
2023-03-18T14:28:46.246Z,22.20
2023-03-18T14:29:48.435Z,22.28
2023-03-18T14:31:14.052Z,22.43
2023-03-18T14:32:34.119Z,22.39
2023-03-18T14:33:50.110Z,22.42
2023-03-18T14:35:00.910Z,22.38